createdAt,value
2023-01-10T00:03:23.077Z,15.23
2023-01-10T00:08:27.961Z,19.90
2023-01-10T00:13:31.489Z,18.83
2023-01-10T00:18:35.042Z,12.52
2023-01-10T00:23:39.893Z,16.67
2023-01-10T00:28:44.010Z,16.38
2023-01-10T00:33:47.525Z,12.25
2023-01-10T00:38:52.893Z,13.98
2023-01-10T00:43:59.253Z,19.85
2023-01-10T00:49:08.495Z,12.30
2023-01-10T00:54:15.057Z,16.27
2023-01-10T00:59:18.542Z,17.08
2023-01-10T01:04:22.427Z,14.25
2023-01-10T01:09:27.304Z,14.57
2023-01-10T01:14:30.804Z,18.42
2023-01-10T01:19:34.369Z,14.15
2023-01-10T01:24:39.649Z,20.25
2023-01-10T01:29:43.772Z,14.70
2023-01-10T01:34:47.396Z,17.65
2023-01-10T01:39:52.296Z,21.13
2023-01-10T01:45:33.133Z,14.13
2023-01-10T01:50:41.760Z,17.95
2023-01-10T01:55:47.807Z,16.73
2023-01-10T02:00:51.420Z,14.68
2023-01-10T02:05:55.174Z,11.80
2023-01-10T02:11:08.637Z,15.90
2023-01-10T02:16:12.696Z,14.63
2023-01-10T02:21:43.082Z,16.17
2023-01-10T02:27:08.738Z,19.93
2023-01-10T02:32:40.798Z,18.13
2023-01-10T02:37:54.959Z,18.27
2023-01-10T02:43:07.461Z,18.02
2023-01-10T02:48:12.392Z,12.50
2023-01-10T02:53:20.211Z,18.77
2023-01-10T02:58:33.390Z,15.52
2023-01-10T03:03:46.980Z,15.32
2023-01-10T03:08:57.559Z,15.05
2023-01-10T03:14:04.436Z,12.68
2023-01-10T03:19:13.848Z,16.75
2023-01-10T03:24:20.106Z,19.83
2023-01-10T03:29:30.447Z,19.38
2023-01-10T03:34:36.202Z,11.20
2023-01-10T03:39:45.617Z,20.67
2023-01-10T03:44:59.271Z,18.52
2023-01-10T03:50:08.916Z,17.05
2023-01-10T03:55:15.143Z,17.13
2023-01-10T04:00:22.144Z,22.42
2023-01-10T04:05:27.121Z,18.50
2023-01-10T04:10:30.606Z,23.20
2023-01-10T04:15:34.295Z,23.50
2023-01-10T04:20:39.150Z,20.98
2023-01-10T04:25:42.648Z,23.02
2023-01-10T04:30:46.263Z,27.35
2023-01-10T04:35:52.273Z,16.88
2023-01-10T04:40:56.438Z,27.23
2023-01-10T06:34:30.612Z,26.42
2023-01-10T06:39:34.478Z,33.25
2023-01-10T06:44:38.193Z,23.13
2023-01-10T06:49:43.083Z,18.10
2023-01-10T06:54:46.656Z,30.02
2023-01-10T06:59:50.286Z,35.17
2023-01-10T07:04:55.202Z,28.85
2023-01-10T07:09:59.882Z,26.85
2023-01-10T07:15:03.468Z,25.13
2023-01-10T07:20:10.107Z,32.05
2023-01-10T07:25:13.593Z,31.20
2023-01-10T07:30:17.726Z,35.42
2023-01-10T07:35:22.759Z,34.65
2023-01-10T07:40:27.130Z,28.98
2023-01-10T07:45:32.241Z,29.33
2023-01-10T07:50:38.710Z,26.15
2023-01-10T07:55:43.828Z,25.33
2023-01-10T08:00:50.493Z,32.28
2023-01-10T08:06:01.382Z,26.30
2023-01-10T08:11:05.542Z,17.48
2023-01-10T08:16:09.974Z,31.50
2023-01-10T08:21:14.998Z,31.88
2023-01-10T08:26:18.979Z,22.02
2023-01-10T08:31:22.818Z,23.77
2023-01-10T08:36:29.116Z,26.48
2023-01-10T08:41:32.794Z,26.23
2023-01-10T08:46:37.359Z,33.78
2023-01-10T08:51:42.898Z,26.13
2023-01-10T08:56:46.754Z,55.63
2023-01-10T09:01:50.590Z,28.65
2023-01-10T09:06:55.955Z,22.38
2023-01-10T09:11:59.877Z,31.10
2023-01-10T09:17:03.429Z,33.25
2023-01-10T09:22:08.446Z,36.28
2023-01-10T09:27:12.383Z,31.73
2023-01-10T09:32:16.861Z,24.70
2023-01-10T09:37:21.932Z,27.10
2023-01-10T09:42:52.960Z,27.75
2023-01-10T09:48:03.169Z,27.75
2023-01-10T09:53:14.396Z,26.43
2023-01-10T09:58:21.756Z,20.45
2023-01-10T10:03:32.757Z,26.58
2023-01-10T10:13:50.196Z,27.60
2023-01-10T10:19:03.163Z,26.77
2023-01-10T10:24:29.786Z,21.05
2023-01-10T10:29:49.793Z,23.13
2023-01-10T10:34:58.703Z,23.70
2023-01-10T10:40:07.521Z,27.20
2023-01-10T10:45:20.405Z,24.50
2023-01-10T10:50:32.683Z,27.17
2023-01-10T10:55:39.141Z,28.35
2023-01-10T11:00:43.750Z,22.73
2023-01-10T11:05:49.125Z,18.00
2023-01-10T11:10:56.914Z,24.13
2023-01-10T11:16:01.712Z,22.02
2023-01-10T11:21:07.842Z,26.95
2023-01-10T11:26:27.858Z,24.83
2023-01-10T11:31:32.425Z,35.67
2023-01-10T11:36:55.177Z,22.50
2023-01-10T11:42:29.906Z,23.35
2023-01-10T11:47:38.079Z,24.00
2023-01-10T11:52:47.392Z,41.05
2023-01-10T11:58:02.407Z,20.50
2023-01-10T12:03:18.720Z,21.55
2023-01-10T12:08:28.388Z,24.45
2023-01-10T12:13:46.359Z,19.95
2023-01-10T12:18:51.581Z,24.45
2023-01-10T12:23:58.767Z,21.42
2023-01-10T12:29:12.908Z,29.25
2023-01-10T12:34:20.499Z,21.10
2023-01-10T12:39:30.990Z,28.90
2023-01-10T12:44:38.579Z,14.20
2023-01-10T12:49:49.835Z,22.13
2023-01-10T12:54:53.376Z,29.02
2023-01-10T13:00:02.453Z,14.00
2023-01-10T13:05:08.068Z,21.27
2023-01-10T13:10:17.128Z,18.70
2023-01-10T13:15:25.473Z,20.27
2023-01-10T13:20:37.377Z,18.05
2023-01-10T13:25:41.567Z,22.88
2023-01-10T13:30:54.106Z,22.60
2023-01-10T13:36:00.784Z,26.70
2023-01-10T13:41:06.771Z,22.75
2023-01-10T13:46:37.834Z,32.40
2023-01-10T13:52:19.982Z,21.17
2023-01-10T13:57:55.897Z,18.13
2023-01-10T14:03:00.996Z,25.65
2023-01-10T14:08:17.228Z,25.25
2023-01-10T14:13:24.338Z,33.95
2023-01-10T14:18:35.178Z,18.80
2023-01-10T14:23:41.514Z,24.20
2023-01-10T14:28:45.527Z,27.13
2023-01-10T14:33:51.582Z,20.33
2023-01-10T14:38:59.177Z,20.52
2023-01-10T14:44:11.790Z,23.85
2023-01-10T14:49:26.108Z,24.38
2023-01-10T14:54:30.578Z,33.00
2023-01-10T14:59:36.856Z,25.15
2023-01-10T15:04:51.352Z,19.00
2023-01-10T15:09:57.281Z,20.73
2023-01-10T15:15:05.704Z,23.60
2023-01-10T15:20:16.143Z,28.20
2023-01-10T15:25:30.476Z,11.67
2023-01-10T15:30:38.754Z,24.33
2023-01-10T15:35:44.534Z,16.35
2023-01-10T15:40:58.658Z,18.23
2023-01-10T15:46:03.747Z,20.80
2023-01-10T15:51:16.111Z,20.02
2023-01-10T15:56:23.494Z,19.52
2023-01-10T16:01:28.679Z,15.32
2023-01-10T16:06:36.035Z,12.93
2023-01-10T16:12:05.222Z,17.90
2023-01-10T16:17:08.928Z,18.00
2023-01-10T16:22:20.303Z,16.17
2023-01-10T16:27:24.110Z,16.42
2023-01-10T16:32:28.949Z,15.57
2023-01-10T16:37:34.334Z,12.23
2023-01-10T16:42:55.964Z,17.00
2023-01-10T16:47:59.662Z,15.60
2023-01-10T16:53:06.276Z,14.48
2023-01-10T16:58:10.599Z,12.63
2023-01-10T17:03:18.322Z,14.73
2023-01-10T17:08:25.262Z,15.23
2023-01-10T17:13:32.999Z,10.05
2023-01-10T17:18:39.324Z,11.40
2023-01-10T17:23:44.758Z,13.48
2023-01-10T17:28:49.980Z,7.05
2023-01-10T17:33:53.782Z,7.82
2023-01-10T17:38:58.876Z,10.77
2023-01-10T17:44:02.973Z,13.70
2023-01-10T17:49:06.563Z,5.47
2023-01-10T17:54:11.832Z,6.13
2023-01-10T17:59:15.621Z,4.97
2023-01-10T18:04:19.320Z,19.48
2023-01-10T18:09:24.624Z,6.63
2023-01-10T18:14:37.307Z,9.35
2023-01-10T18:19:41.275Z,5.88
2023-01-10T18:24:47.159Z,6.18
2023-01-10T18:29:51.377Z,6.43
2023-01-10T18:34:55.459Z,4.95
2023-01-10T18:40:00.577Z,4.32
2023-01-10T18:45:04.911Z,9.90
2023-01-10T18:50:09.329Z,8.07
2023-01-10T18:55:14.664Z,5.60
2023-01-10T19:00:19.173Z,6.60
2023-01-10T19:05:22.814Z,7.65
2023-01-10T19:10:27.873Z,3.58
2023-01-10T19:15:31.619Z,5.75
2023-01-10T19:20:35.414Z,4.60
2023-01-10T19:25:40.597Z,6.53
2023-01-10T19:30:47.047Z,5.15
2023-01-10T19:35:52.920Z,4.85
2023-01-10T19:40:58.045Z,4.63
2023-01-10T19:46:01.914Z,4.97
2023-01-10T19:51:06.955Z,4.32
2023-01-10T19:56:12.946Z,6.93
2023-01-10T20:01:19.861Z,4.72
2023-01-10T20:06:26.147Z,6.10
2023-01-10T20:11:37.445Z,7.00
2023-01-10T20:16:41.769Z,4.18
2023-01-10T20:21:45.691Z,4.95
2023-01-10T20:26:51.602Z,6.65
2023-01-10T20:31:57.689Z,5.20
2023-01-10T20:37:01.382Z,7.30
2023-01-10T20:42:06.596Z,4.35
2023-01-10T20:47:10.321Z,12.98
2023-01-10T20:52:14.318Z,5.55
2023-01-10T20:57:19.244Z,4.68
2023-01-10T21:02:22.977Z,6.35
2023-01-10T21:07:26.598Z,5.25
2023-01-10T21:12:33.120Z,5.53
2023-01-10T21:17:37.613Z,5.40
2023-01-10T21:22:41.468Z,5.60
2023-01-10T21:27:46.690Z,6.82
2023-01-10T21:32:50.465Z,5.65
2023-01-10T21:37:56.377Z,5.95
2023-01-10T21:43:02.794Z,24.13
2023-01-10T21:48:06.670Z,5.80
2023-01-10T21:53:10.528Z,8.38
2023-01-10T21:58:15.785Z,7.30
2023-01-10T22:03:19.315Z,7.75
2023-01-10T22:08:23.170Z,5.10
2023-01-10T22:13:28.320Z,7.45
2023-01-10T22:18:32.903Z,5.75
2023-01-10T22:23:36.602Z,5.85
2023-01-10T22:28:41.598Z,11.45
2023-01-10T22:33:45.194Z,6.40
2023-01-10T22:38:49.371Z,6.03
2023-01-10T22:43:54.991Z,9.73
2023-01-10T22:48:58.508Z,7.15
2023-01-10T22:54:02.612Z,9.35
2023-01-10T22:59:07.587Z,8.77
2023-01-10T23:04:11.188Z,6.65
2023-01-10T23:09:14.682Z,5.65
2023-01-10T23:14:19.658Z,6.72
2023-01-10T23:19:23.187Z,8.27
2023-01-10T23:24:26.680Z,7.70
2023-01-10T23:29:31.522Z,6.50
2023-01-10T23:34:35.049Z,10.55
2023-01-10T23:39:38.562Z,7.15
2023-01-10T23:44:44.133Z,8.52
2023-01-10T23:49:47.619Z,6.28
2023-01-10T23:54:51.134Z,5.75
2023-01-10T23:59:56.114Z,6.22
